Time;durP1;ratioP1;P1;durP2;ratioP2;P2;SDS_P1;SDS_P2;PMS_P1;PMS_P2;Temp;Humidity;BMP_temperature;BMP_pressure;BME280_temperature;BME280_humidity;BME280_pressure;Samples;Min_cycle;Max_cycle;Signal;HPM_P1;HPM_P2
2023/11/26 00:02:07;;;;;;;0.40;0.40;;;;;;;2.52;39.31;91727.09;4944813;29;20445;-78
2023/11/26 00:04:33;;;;;;;0.40;0.40;;;;;;;2.48;39.14;91729.44;4952132;29;20462;-79
2023/11/26 00:06:59;;;;;;;0.40;0.40;;;;;;;2.44;39.46;91733.53;4952365;28;20040;-78
2023/11/26 00:09:25;;;;;;;0.50;0.50;;;;;;;2.40;40.02;91741.00;4952673;29;20058;-79
2023/11/26 00:11:51;;;;;;;0.40;0.40;;;;;;;2.38;40.00;91735.31;4953013;29;20042;-78
2023/11/26 00:14:17;;;;;;;0.40;0.40;;;;;;;2.42;40.32;91738.19;4952095;29;20040;-78
2023/11/26 00:16:44;;;;;;;0.50;0.50;;;;;;;2.46;39.85;91731.50;4945183;28;20047;-78
2023/11/26 00:19:10;;;;;;;0.50;0.50;;;;;;;2.47;40.15;91733.78;4945337;29;20039;-79
2023/11/26 00:21:36;;;;;;;0.50;0.50;;;;;;;2.41;39.39;91744.38;4956336;29;20036;-78
2023/11/26 00:24:02;;;;;;;0.50;0.50;;;;;;;2.37;39.52;91744.13;4961122;28;20117;-79
2023/11/26 00:26:27;;;;;;;0.50;0.50;;;;;;;2.42;40.49;91746.72;4957631;28;20041;-79
2023/11/26 00:29:00;;;;;;;0.50;0.50;;;;;;;2.36;40.86;91741.78;4946180;29;20168;-79
2023/11/26 00:31:25;;;;;;;0.40;0.40;;;;;;;2.30;40.32;91751.31;4933130;29;20126;-78
2023/11/26 00:33:51;;;;;;;0.50;0.50;;;;;;;2.19;40.79;91758.25;4943196;29;20050;-78
2023/11/26 00:36:21;;;;;;;0.40;0.40;;;;;;;2.39;40.10;91754.19;4938474;29;20529;-78
2023/11/26 00:38:47;;;;;;;0.40;0.40;;;;;;;2.50;39.82;91753.19;4947480;28;20457;-78
2023/11/26 00:41:19;;;;;;;0.40;0.40;;;;;;;2.58;39.69;91750.09;4910901;29;20043;-78
2023/11/26 00:43:45;;;;;;;0.40;0.40;;;;;;;2.56;39.74;91766.91;4933904;29;20162;-78
2023/11/26 00:46:10;;;;;;;0.50;0.50;;;;;;;2.52;39.42;91756.28;4937837;29;20576;-78
2023/11/26 00:48:37;;;;;;;0.40;0.40;;;;;;;2.58;39.61;91757.84;4922034;29;20090;-78
2023/11/26 00:51:04;;;;;;;0.43;0.43;;;;;;;2.66;39.40;91770.28;4936002;29;20263;-79
2023/11/26 00:53:30;;;;;;;0.40;0.40;;;;;;;2.59;39.87;91745.72;4944154;29;20020;-78
2023/11/26 00:55:56;;;;;;;0.40;0.40;;;;;;;2.53;39.72;91750.09;4939209;29;20035;-78
2023/11/26 00:58:21;;;;;;;0.43;0.43;;;;;;;2.54;40.08;91753.44;4937420;29;20086;-78
2023/11/26 01:00:47;;;;;;;0.55;0.55;;;;;;;2.49;39.87;91742.06;4937155;29;20035;-78
2023/11/26 01:03:13;;;;;;;0.40;0.40;;;;;;;2.62;40.06;91755.56;4936097;29;20058;-78
2023/11/26 01:05:39;;;;;;;0.40;0.40;;;;;;;2.56;39.67;91747.00;4953110;28;20414;-77
2023/11/26 01:08:06;;;;;;;0.40;0.40;;;;;;;2.57;40.17;91766.66;4945478;29;20043;-77
2023/11/26 01:10:31;;;;;;;0.40;0.40;;;;;;;2.56;40.26;91767.66;4933236;29;20392;-77
2023/11/26 01:12:57;;;;;;;0.40;0.40;;;;;;;2.52;40.02;91769.19;4942902;29;20035;-77
2023/11/26 01:15:23;;;;;;;0.40;0.40;;;;;;;2.88;38.78;91761.53;4953413;29;20065;-77
2023/11/26 01:17:48;;;;;;;0.47;0.47;;;;;;;2.77;39.51;91767.72;4945978;28;20050;-77
2023/11/26 01:20:16;;;;;;;0.40;0.40;;;;;;;2.93;38.62;91758.97;4937526;29;20126;-79
2023/11/26 01:22:42;;;;;;;0.50;0.50;;;;;;;2.85;39.20;91764.63;4936904;29;20168;-78
2023/11/26 01:25:08;;;;;;;0.55;0.55;;;;;;;2.84;39.20;91770.84;4934731;29;20039;-78
2023/11/26 01:27:34;;;;;;;0.50;0.45;;;;;;;2.86;38.96;91766.97;4932639;29;20719;-79
2023/11/26 01:30:00;;;;;;;0.50;0.50;;;;;;;2.98;38.83;91771.13;4954789;29;20382;-79
2023/11/26 01:32:26;;;;;;;0.40;0.40;;;;;;;2.89;39.60;91773.44;4948982;29;20036;-78
2023/11/26 01:34:52;;;;;;;0.50;0.50;;;;;;;2.80;39.66;91769.81;4936756;29;20027;-78
2023/11/26 01:37:18;;;;;;;0.40;0.40;;;;;;;2.69;39.90;91777.53;4946001;29;20030;-78
2023/11/26 01:39:44;;;;;;;0.40;0.40;;;;;;;2.56;40.64;91778.00;4937725;29;20338;-78
2023/11/26 01:42:11;;;;;;;0.60;0.60;;;;;;;2.58;40.23;91786.28;4950652;29;20117;-78
2023/11/26 01:44:36;;;;;;;0.40;0.40;;;;;;;2.67;39.77;91776.22;4913212;29;20040;-78
2023/11/26 01:47:04;;;;;;;0.43;0.43;;;;;;;2.73;40.17;91777.81;4952529;29;20092;-78
2023/11/26 01:49:34;;;;;;;0.40;0.40;;;;;;;2.76;39.82;91781.69;4948040;29;20047;-79
2023/11/26 01:52:02;;;;;;;0.50;0.50;;;;;;;2.83;39.77;91779.63;4944532;29;20031;-79
2023/11/26 01:54:33;;;;;;;0.50;0.50;;;;;;;2.82;39.62;91778.84;4954192;29;20055;-79
2023/11/26 01:56:59;;;;;;;0.47;0.47;;;;;;;3.00;38.32;91761.31;4944586;29;20110;-78
2023/11/26 01:59:25;;;;;;;0.40;0.40;;;;;;;2.82;38.91;91776.28;4937310;29;20270;-79
2023/11/26 02:01:51;;;;;;;0.50;0.50;;;;;;;2.91;38.83;91779.13;4959881;28;20411;-79
2023/11/26 02:04:17;;;;;;;0.50;0.50;;;;;;;2.98;38.23;91776.31;4945626;29;20039;-78
2023/11/26 02:06:43;;;;;;;0.40;0.40;;;;;;;2.99;38.70;91773.44;4916785;29;20048;-77
2023/11/26 02:09:10;;;;;;;0.45;0.45;;;;;;;3.04;38.53;91770.88;4932449;29;20039;-79
2023/11/26 02:11:37;;;;;;;0.60;0.60;;;;;;;3.05;39.18;91780.19;4946133;29;20551;-77
2023/11/26 02:14:03;;;;;;;0.40;0.40;;;;;;;2.97;38.97;91772.16;4945417;29;20460;-77
2023/11/26 02:16:29;;;;;;;0.50;0.50;;;;;;;2.87;39.60;91760.00;4947283;29;20052;-77
2023/11/26 02:18:55;;;;;;;0.50;0.50;;;;;;;2.84;39.24;91773.44;4957273;28;20038;-77
2023/11/26 02:21:21;;;;;;;0.40;0.40;;;;;;;2.71;40.18;91769.53;4934505;29;20439;-77
2023/11/26 02:23:47;;;;;;;0.40;0.40;;;;;;;2.73;39.42;91774.44;4933164;29;20044;-78
2023/11/26 02:26:13;;;;;;;0.50;0.50;;;;;;;2.75;40.22;91769.78;4941228;29;20042;-78
2023/11/26 02:28:43;;;;;;;0.60;0.60;;;;;;;2.77;39.72;91762.53;4935497;29;20039;-78
2023/11/26 02:31:12;;;;;;;0.50;0.50;;;;;;;2.65;40.32;91763.56;4930051;29;20403;-78
2023/11/26 02:33:39;;;;;;;0.50;0.50;;;;;;;2.66;40.28;91778.03;4933438;29;20095;-77
2023/11/26 02:36:05;;;;;;;0.50;0.50;;;;;;;2.56;40.29;91765.09;4952059;29;20132;-78
2023/11/26 02:38:32;;;;;;;0.50;0.50;;;;;;;2.49;41.19;91751.63;4948882;28;20074;-78
2023/11/26 02:40:57;;;;;;;0.40;0.40;;;;;;;2.45;41.25;91772.03;4918344;29;20046;-77
2023/11/26 02:43:23;;;;;;;0.40;0.40;;;;;;;2.43;41.36;91778.47;4950683;29;20043;-78
2023/11/26 02:45:56;;;;;;;0.50;0.50;;;;;;;2.31;40.89;91770.19;4935282;29;20113;-78
2023/11/26 02:48:24;;;;;;;0.40;0.40;;;;;;;2.34;41.10;91767.84;4930311;29;20046;-78
2023/11/26 02:50:52;;;;;;;0.40;0.40;;;;;;;2.23;42.53;91779.16;4946953;29;20412;-78
2023/11/26 02:53:18;;;;;;;0.50;0.50;;;;;;;2.12;44.17;91777.56;4957042;28;20507;-78
2023/11/26 02:55:46;;;;;;;0.50;0.50;;;;;;;2.19;43.81;91772.97;4933416;29;20031;-78
2023/11/26 02:58:13;;;;;;;1.23;0.43;;;;;;;1.96;45.04;91763.81;4931433;29;20531;-78
2023/11/26 03:00:42;;;;;;;0.40;0.40;;;;;;;1.90;43.70;91765.59;4934924;29;20086;-79
2023/11/26 03:03:12;;;;;;;0.40;0.40;;;;;;;1.90;43.15;91772.56;4948011;29;20511;-78
2023/11/26 03:05:38;;;;;;;0.40;0.40;;;;;;;2.06;41.90;91762.06;4919045;29;20070;-78
2023/11/26 03:08:21;;;;;;;0.50;0.50;;;;;;;2.18;41.21;91766.25;4908256;29;20046;-78
2023/11/26 03:13:35;;;;;;;0.40;0.40;;;;;;;2.23;41.17;91772.22;4950050;29;20142;-78
2023/11/26 03:16:04;;;;;;;0.40;0.40;;;;;;;2.21;41.51;91769.13;4934472;29;20045;-78
2023/11/26 03:18:31;;;;;;;0.40;0.40;;;;;;;2.24;40.97;91767.81;4947687;28;20514;-78
2023/11/26 03:20:57;;;;;;;0.50;0.50;;;;;;;2.22;41.32;91768.06;4937334;29;20039;-78
2023/11/26 03:23:24;;;;;;;0.50;0.50;;;;;;;2.17;41.45;91770.63;4947150;28;20023;-78
2023/11/26 03:25:51;;;;;;;0.50;0.50;;;;;;;2.23;41.11;91771.41;4951931;29;20141;-78
2023/11/26 03:28:18;;;;;;;0.85;0.50;;;;;;;2.20;41.20;91759.78;4934511;29;20039;-78
2023/11/26 03:30:46;;;;;;;0.40;0.40;;;;;;;2.21;41.11;91756.19;4931241;29;20062;-78
2023/11/26 03:33:15;;;;;;;0.40;0.40;;;;;;;2.31;41.04;91770.94;4930936;29;20058;-78
2023/11/26 03:35:41;;;;;;;0.50;0.50;;;;;;;2.35;40.44;91768.66;4950150;29;20039;-78
2023/11/26 03:38:10;;;;;;;0.40;0.40;;;;;;;2.35;40.42;91768.66;4946088;28;20106;-78
2023/11/26 03:40:36;;;;;;;0.50;0.50;;;;;;;2.33;40.15;91766.31;4933381;29;20086;-78
2023/11/26 03:43:02;;;;;;;0.50;0.50;;;;;;;2.36;40.13;91767.59;4933521;29;20035;-78
2023/11/26 03:45:28;;;;;;;0.50;0.50;;;;;;;2.40;40.14;91769.44;4950199;29;20126;-78
2023/11/26 03:47:55;;;;;;;0.52;0.50;;;;;;;2.46;40.15;91771.00;4931509;29;20086;-78
2023/11/26 03:50:20;;;;;;;0.50;0.50;;;;;;;2.58;39.21;91764.84;4947765;29;20039;-79
2023/11/26 03:52:46;;;;;;;0.50;0.50;;;;;;;2.51;39.54;91759.91;4920862;29;20027;-78
2023/11/26 03:55:11;;;;;;;0.43;0.43;;;;;;;2.48;40.04;91771.53;4947975;28;20486;-77
2023/11/26 03:57:37;;;;;;;0.43;0.43;;;;;;;2.44;39.98;91769.72;4950543;28;20039;-78
2023/11/26 04:00:08;;;;;;;0.50;0.50;;;;;;;2.42;39.62;91769.19;4931415;29;20046;-78
2023/11/26 04:02:39;;;;;;;0.43;0.43;;;;;;;2.44;39.47;91769.72;4948485;29;20054;-78
2023/11/26 04:05:07;;;;;;;0.40;0.40;;;;;;;2.45;39.89;91769.44;4941012;29;20039;-78
2023/11/26 04:07:33;;;;;;;0.40;0.40;;;;;;;2.45;39.36;91772.03;4949323;28;20043;-79
2023/11/26 04:10:04;;;;;;;0.50;0.50;;;;;;;2.56;39.39;91767.66;4920892;28;20046;-78
2023/11/26 04:12:29;;;;;;;0.52;0.52;;;;;;;2.51;39.48;91765.06;4951370;29;20106;-78
2023/11/26 04:14:57;;;;;;;0.50;0.50;;;;;;;2.57;38.97;91774.41;4948330;29;20090;-78
2023/11/26 04:17:24;;;;;;;0.50;0.40;;;;;;;2.59;39.12;91780.09;4946368;29;20039;-78
2023/11/26 04:19:54;;;;;;;0.40;0.40;;;;;;;2.50;39.09;91789.38;4935513;28;20050;-78
2023/11/26 04:22:23;;;;;;;0.45;0.45;;;;;;;2.67;38.74;91782.16;4956635;28;20040;-78
2023/11/26 04:24:50;;;;;;;0.50;0.50;;;;;;;2.68;38.91;91778.56;4949695;28;20047;-78
2023/11/26 04:27:16;;;;;;;0.50;0.50;;;;;;;2.69;38.21;91782.69;4952019;28;20110;-78
2023/11/26 04:29:43;;;;;;;0.73;0.50;;;;;;;2.81;37.57;91786.84;4944793;29;20046;-78
2023/11/26 04:32:09;;;;;;;0.50;0.50;;;;;;;2.75;37.71;91793.03;4951017;28;20039;-78
2023/11/26 04:34:35;;;;;;;0.52;0.52;;;;;;;2.70;37.84;91799.78;4931160;29;20311;-79
2023/11/26 04:37:01;;;;;;;0.50;0.50;;;;;;;2.80;37.32;91798.25;4949306;28;20031;-79
2023/11/26 04:39:28;;;;;;;0.40;0.40;;;;;;;2.77;37.21;91801.31;4950556;29;20053;-78
2023/11/26 04:41:54;;;;;;;0.43;0.43;;;;;;;2.84;37.69;91810.41;4949915;29;20058;-78
2023/11/26 04:44:20;;;;;;;0.47;0.47;;;;;;;2.77;37.66;91803.91;4943183;29;20062;-78
2023/11/26 04:46:48;;;;;;;0.40;0.40;;;;;;;2.75;37.21;91800.78;4951047;28;20042;-78
2023/11/26 04:49:15;;;;;;;0.40;0.40;;;;;;;2.75;37.40;91800.78;4939658;29;20060;-78
2023/11/26 04:51:41;;;;;;;0.40;0.40;;;;;;;2.73;37.72;91808.06;4942353;28;20506;-78
2023/11/26 04:54:13;;;;;;;0.40;0.40;;;;;;;2.62;38.48;91815.75;4950791;29;20479;-79
2023/11/26 04:56:39;;;;;;;0.40;0.40;;;;;;;2.73;37.71;91808.06;4951084;29;20403;-78
2023/11/26 04:59:06;;;;;;;0.40;0.40;;;;;;;2.68;37.90;91806.22;4950711;28;20837;-78
2023/11/26 05:01:34;;;;;;;1.77;0.60;;;;;;;2.63;37.87;91813.94;4950263;29;20046;-79
2023/11/26 05:04:00;;;;;;;0.50;0.50;;;;;;;2.61;37.60;91819.38;4945469;28;20023;-78
2023/11/26 05:06:27;;;;;;;0.50;0.50;;;;;;;2.73;37.01;91805.47;4935736;29;20027;-78
2023/11/26 05:08:52;;;;;;;0.50;0.50;;;;;;;2.81;36.90;91817.88;4954031;28;20051;-79
2023/11/26 05:11:18;;;;;;;0.40;0.40;;;;;;;3.01;37.16;91814.56;4948318;29;20511;-78
2023/11/26 05:13:45;;;;;;;0.50;0.50;;;;;;;3.11;36.81;91830.13;4937124;29;20051;-78
2023/11/26 05:16:11;;;;;;;0.40;0.40;;;;;;;2.91;37.93;91825.66;4954101;29;20077;-78
2023/11/26 05:18:37;;;;;;;0.40;0.40;;;;;;;2.93;37.56;91833.94;4953549;29;20122;-78
2023/11/26 05:21:03;;;;;;;0.40;0.40;;;;;;;2.84;37.14;91827.72;4953729;29;20027;-78
2023/11/26 05:23:28;;;;;;;0.50;0.50;;;;;;;2.70;38.20;91845.50;4953563;29;20039;-78
2023/11/26 05:25:54;;;;;;;0.40;0.40;;;;;;;2.68;37.62;91848.34;4941587;29;20094;-77
2023/11/26 05:28:20;;;;;;;0.52;0.52;;;;;;;2.51;38.86;91850.34;4953117;28;20027;-78
2023/11/26 05:30:45;;;;;;;0.60;0.60;;;;;;;2.39;38.42;91852.38;4947819;29;20095;-79
2023/11/26 05:33:11;;;;;;;0.60;0.60;;;;;;;2.47;38.77;91849.28;4937632;29;20034;-79
2023/11/26 05:35:37;;;;;;;0.60;0.52;;;;;;;2.31;38.39;91865.75;4942663;29;20118;-78
2023/11/26 05:38:03;;;;;;;0.55;0.55;;;;;;;2.13;40.40;91856.59;4940408;28;20047;-79
2023/11/26 05:40:29;;;;;;;0.50;0.50;;;;;;;1.99;41.78;91858.84;4948288;28;20035;-79
2023/11/26 05:42:56;;;;;;;0.40;0.40;;;;;;;1.85;42.19;91861.09;4949398;29;20391;-78
2023/11/26 05:45:21;;;;;;;0.40;0.40;;;;;;;1.69;43.40;91864.56;4965687;28;20054;-78
2023/11/26 05:47:47;;;;;;;0.63;0.60;;;;;;;1.57;43.40;91864.72;4952745;29;20406;-78
2023/11/26 05:50:13;;;;;;;0.40;0.40;;;;;;;1.47;43.44;91864.66;4926420;29;20028;-78
2023/11/26 05:52:39;;;;;;;0.40;0.40;;;;;;;1.37;45.30;91870.50;4949007;29;20036;-78
2023/11/26 05:55:07;;;;;;;0.50;0.50;;;;;;;1.30;45.07;91872.50;4941175;29;20452;-78
2023/11/26 05:57:33;;;;;;;0.45;0.45;;;;;;;1.22;44.73;91878.88;4953783;29;20027;-78
2023/11/26 05:59:59;;;;;;;0.50;0.50;;;;;;;1.19;44.40;91880.16;4952963;29;20075;-78
2023/11/26 06:02:25;;;;;;;0.52;0.52;;;;;;;1.19;45.21;91876.75;4945128;29;20031;-78
2023/11/26 06:04:51;;;;;;;0.50;0.50;;;;;;;1.12;46.36;91887.28;4951522;28;20419;-78
2023/11/26 06:07:17;;;;;;;0.40;0.40;;;;;;;1.03;46.23;91889.50;4952369;28;20091;-78
2023/11/26 06:09:43;;;;;;;0.47;0.47;;;;;;;1.00;47.12;91894.38;4957012;28;20450;-78
2023/11/26 06:12:08;;;;;;;0.50;0.50;;;;;;;0.94;47.47;91898.69;4935730;29;20094;-78
2023/11/26 06:14:35;;;;;;;0.88;0.88;;;;;;;0.86;47.52;91896.56;4951735;28;20070;-78
2023/11/26 06:17:01;;;;;;;0.90;0.70;;;;;;;0.80;48.71;91902.66;4939972;29;20043;-78
2023/11/26 06:19:27;;;;;;;0.50;0.50;;;;;;;0.74;48.40;91903.59;4938748;28;20039;-78
2023/11/26 06:21:53;;;;;;;0.60;0.60;;;;;;;0.66;49.76;91894.50;4952126;29;20066;-76
2023/11/26 06:24:19;;;;;;;0.60;0.60;;;;;;;0.57;49.00;91904.44;4951285;28;20039;-76
2023/11/26 06:26:44;;;;;;;0.50;0.50;;;;;;;0.52;48.85;91898.44;4955164;28;20487;-77
2023/11/26 06:29:11;;;;;;;0.50;0.50;;;;;;;0.50;49.07;91903.84;4948044;28;20066;-77
2023/11/26 06:31:36;;;;;;;0.60;0.60;;;;;;;0.44;49.08;91891.91;4930192;29;20052;-76
2023/11/26 06:34:02;;;;;;;0.43;0.43;;;;;;;0.48;48.76;91903.31;4954750;29;20029;-76
2023/11/26 06:36:28;;;;;;;0.50;0.50;;;;;;;0.49;49.20;91907.44;4953298;29;20101;-76
2023/11/26 06:38:55;;;;;;;0.50;0.50;;;;;;;0.50;50.34;91908.22;4955466;29;20528;-80
2023/11/26 06:41:27;;;;;;;0.60;0.60;;;;;;;0.52;48.46;91906.16;4951727;29;20496;-79
2023/11/26 06:43:54;;;;;;;0.60;0.60;;;;;;;0.53;48.81;91898.22;4950495;28;20031;-79
2023/11/26 06:46:22;;;;;;;0.50;0.50;;;;;;;0.53;48.27;91910.31;4953334;29;20055;-78
2023/11/26 06:48:48;;;;;;;0.50;0.50;;;;;;;0.62;47.39;91912.22;4952950;28;20121;-80
2023/11/26 06:51:14;;;;;;;0.50;0.50;;;;;;;0.68;46.96;91918.25;4956463;29;20024;-79
2023/11/26 06:53:40;;;;;;;0.50;0.50;;;;;;;0.78;46.07;91915.78;4950216;29;20403;-80
2023/11/26 06:56:07;;;;;;;0.70;0.70;;;;;;;0.96;43.27;91916.50;4919941;29;20050;-79
2023/11/26 06:58:37;;;;;;;0.43;0.43;;;;;;;1.17;44.10;91912.31;4935887;29;20042;-79
2023/11/26 07:01:04;;;;;;;0.45;0.45;;;;;;;1.29;44.35;91925.09;4939058;29;20038;-79
2023/11/26 07:03:45;;;;;;;0.50;0.50;;;;;;;2.06;43.42;91937.63;4944825;29;20110;-81
2023/11/26 07:06:11;;;;;;;0.60;0.60;;;;;;;3.53;41.15;91930.84;4934623;29;20126;-81
2023/11/26 07:08:41;;;;;;;0.60;0.60;;;;;;;4.92;37.47;91928.91;4957752;29;20267;-81
2023/11/26 07:11:19;;;;;;;0.50;0.50;;;;;;;6.20;33.85;91924.88;4952356;29;20130;-79
2023/11/26 07:13:50;;;;;;;0.50;0.50;;;;;;;7.55;32.04;91926.56;4946820;29;20039;-81
2023/11/26 07:16:17;;;;;;;0.40;0.40;;;;;;;8.88;29.31;91929.00;4938556;28;20404;-80
2023/11/26 07:18:43;;;;;;;0.60;0.60;;;;;;;9.81;27.63;91926.13;4947611;29;20039;-81
2023/11/26 07:21:09;;;;;;;0.47;0.47;;;;;;;10.52;26.82;91936.09;4947938;29;20052;-81
2023/11/26 07:23:36;;;;;;;0.55;0.55;;;;;;;11.49;25.50;91932.81;4945138;28;20125;-81
2023/11/26 07:26:12;;;;;;;0.50;0.50;;;;;;;11.84;24.57;91936.28;4946688;28;20452;-83
2023/11/26 07:28:39;;;;;;;0.40;0.40;;;;;;;12.33;23.61;91941.44;4915357;29;20130;-82
2023/11/26 07:31:12;;;;;;;0.45;0.45;;;;;;;13.06;22.64;91925.69;4952256;28;20035;-81
2023/11/26 07:33:38;;;;;;;0.50;0.50;;;;;;;13.75;22.48;91935.16;4946564;29;20032;-81
2023/11/26 07:36:14;;;;;;;0.40;0.40;;;;;;;14.57;21.31;91938.16;4936749;29;20039;-82
2023/11/26 07:38:41;;;;;;;0.40;0.40;;;;;;;14.99;20.74;91934.66;4951926;28;20030;-82
2023/11/26 07:41:08;;;;;;;0.40;0.40;;;;;;;15.61;20.29;91946.06;4949707;29;20077;-81
2023/11/26 07:43:38;;;;;;;0.30;0.30;;;;;;;16.07;19.27;91943.28;4934990;29;20103;-82
2023/11/26 07:46:07;;;;;;;0.40;0.40;;;;;;;16.32;19.11;91946.66;4947536;28;20067;-81
2023/11/26 07:48:34;;;;;;;1.08;0.40;;;;;;;16.62;19.17;91953.16;4930733;29;20539;-84
2023/11/26 07:51:03;;;;;;;0.20;0.20;;;;;;;16.53;19.02;91947.25;4947714;28;20031;-82
2023/11/26 07:53:32;;;;;;;0.30;0.30;;;;;;;16.76;18.41;91955.41;4933095;29;20035;-82
2023/11/26 07:56:01;;;;;;;0.55;0.55;;;;;;;17.37;18.18;91946.44;4934118;29;20043;-83
2023/11/26 07:58:28;;;;;;;0.40;0.40;;;;;;;17.60;18.25;91951.88;4946013;29;20028;-83
2023/11/26 08:00:57;;;;;;;0.28;0.28;;;;;;;17.65;17.57;91941.06;4934409;29;20043;-82
2023/11/26 08:03:25;;;;;;;0.30;0.30;;;;;;;17.58;17.47;91956.00;4911976;29;20464;-83
2023/11/26 08:05:51;;;;;;;0.30;0.30;;;;;;;18.43;17.49;91956.38;4947646;29;20090;-81
2023/11/26 08:08:21;;;;;;;0.38;0.38;;;;;;;18.78;17.17;91961.69;4954633;28;20040;-80
2023/11/26 08:10:48;;;;;;;0.40;0.40;;;;;;;18.99;16.43;91965.84;4952781;28;20043;-82
2023/11/26 08:13:15;;;;;;;0.40;0.40;;;;;;;19.34;16.04;91955.09;4924503;29;20063;-81
2023/11/26 08:15:41;;;;;;;0.77;0.32;;;;;;;20.28;15.29;91957.34;4916817;29;20036;-82
2023/11/26 08:18:07;;;;;;;0.50;0.50;;;;;;;19.80;15.77;91971.06;4936565;29;20067;-82
2023/11/26 08:20:33;;;;;;;0.43;0.43;;;;;;;19.59;14.99;91979.44;4912758;29;20051;-81
2023/11/26 08:23:02;;;;;;;0.38;0.38;;;;;;;19.92;15.26;91978.06;4953966;29;20036;-80
2023/11/26 08:25:33;;;;;;;0.43;0.43;;;;;;;20.49;15.00;91984.22;4942666;29;20027;-81
2023/11/26 08:28:01;;;;;;;0.40;0.40;;;;;;;21.16;14.51;91980.84;4919383;29;20043;-80
2023/11/26 08:30:41;;;;;;;0.40;0.40;;;;;;;20.40;14.65;91983.72;4953768;28;20074;-82
2023/11/26 08:33:07;;;;;;;0.30;0.30;;;;;;;20.66;14.81;91984.84;4946563;28;20511;-82
2023/11/26 08:35:34;;;;;;;0.40;0.40;;;;;;;19.50;15.37;91989.50;4950694;29;20067;-82
2023/11/26 08:38:02;;;;;;;0.30;0.30;;;;;;;18.06;16.64;91981.34;4936293;29;20082;-82
2023/11/26 08:40:38;;;;;;;0.25;0.20;;;;;;;17.72;15.92;91988.09;4935193;29;20089;-82
2023/11/26 08:43:09;;;;;;;0.80;0.43;;;;;;;17.41;17.48;91996.78;4920885;29;20126;-81
2023/11/26 08:45:40;;;;;;;0.40;0.40;;;;;;;17.01;17.39;91995.00;4948914;28;20526;-80
2023/11/26 08:48:06;;;;;;;0.47;0.28;;;;;;;17.16;18.54;91993.50;4936305;29;20068;-80
2023/11/26 08:50:34;;;;;;;0.63;0.32;;;;;;;16.45;19.45;91996.47;4950475;28;20035;-80
2023/11/26 08:53:00;;;;;;;0.30;0.28;;;;;;;15.18;18.75;92007.97;4953803;28;20071;-81
2023/11/26 08:55:25;;;;;;;0.20;0.20;;;;;;;15.02;18.11;92004.38;4938371;29;20035;-79
2023/11/26 08:57:52;;;;;;;0.20;0.20;;;;;;;14.34;18.86;92010.63;4958035;28;20042;-80
2023/11/26 09:00:18;;;;;;;0.32;0.32;;;;;;;14.10;19.17;92006.00;4936214;29;20082;-81
2023/11/26 09:02:44;;;;;;;0.20;0.20;;;;;;;13.87;19.09;91998.38;4950754;28;20066;-78
2023/11/26 09:05:10;;;;;;;0.20;0.20;;;;;;;13.50;20.28;92013.06;4952022;28;20038;-79
2023/11/26 09:07:44;;;;;;;0.30;0.30;;;;;;;12.43;21.14;92010.13;4947001;28;20257;-83
2023/11/26 09:10:10;;;;;;;0.40;0.40;;;;;;;12.48;21.60;92009.97;4953514;28;20024;-81
2023/11/26 09:12:39;;;;;;;0.30;0.30;;;;;;;12.71;22.01;92015.84;4951981;28;20027;-81
2023/11/26 09:15:07;;;;;;;0.40;0.40;;;;;;;12.77;19.73;92007.81;4952470;29;20155;-82
2023/11/26 09:17:33;;;;;;;1.20;0.60;;;;;;;12.24;22.18;92018.28;4933379;29;20419;-81
2023/11/26 09:19:59;;;;;;;0.40;0.40;;;;;;;11.77;22.09;92007.53;4957125;29;20039;-80
2023/11/26 09:22:25;;;;;;;0.50;0.50;;;;;;;11.90;21.64;92015.63;4956117;29;20031;-80
2023/11/26 09:24:50;;;;;;;0.50;0.50;;;;;;;11.99;22.51;92008.53;4955762;29;20035;-81
2023/11/26 09:27:16;;;;;;;0.50;0.50;;;;;;;11.66;23.24;92014.13;4949653;29;20039;-81
2023/11/26 09:29:42;;;;;;;0.70;0.70;;;;;;;11.62;23.24;92018.44;4943853;29;20035;-80
2023/11/26 09:32:08;;;;;;;0.73;0.68;;;;;;;11.30;23.05;92030.00;4956466;29;20898;-80
2023/11/26 09:34:34;;;;;;;0.77;0.77;;;;;;;11.37;23.25;92023.28;4958372;29;20039;-80
2023/11/26 09:37:04;;;;;;;0.40;0.40;;;;;;;11.37;23.35;92023.28;4958843;29;20034;-80
2023/11/26 09:39:34;;;;;;;0.40;0.40;;;;;;;11.18;24.09;92020.09;4958398;29;20507;-82
2023/11/26 09:42:02;;;;;;;0.57;0.57;;;;;;;11.27;22.72;92017.53;4945325;28;20085;-82
2023/11/26 09:44:28;;;;;;;0.47;0.47;;;;;;;11.12;23.87;92016.03;4950039;28;20047;-81
2023/11/26 09:46:55;;;;;;;0.60;0.60;;;;;;;11.53;24.30;92023.66;4943117;28;20055;-82
2023/11/26 09:49:20;;;;;;;0.35;0.35;;;;;;;11.13;23.11;92015.75;4940849;28;21524;-81
2023/11/26 09:51:59;;;;;;;0.50;0.50;;;;;;;10.55;24.41;92022.63;4942682;28;20419;-80
2023/11/26 09:54:24;;;;;;;0.57;0.50;;;;;;;9.47;25.02;92025.84;4929698;29;20500;-81
2023/11/26 09:56:59;;;;;;;0.45;0.45;;;;;;;9.56;25.57;92026.72;4953024;28;20039;-82
2023/11/26 09:59:27;;;;;;;1.27;0.73;;;;;;;9.97;26.35;92028.53;4935994;28;20044;-80
2023/11/26 10:01:53;;;;;;;0.50;0.50;;;;;;;9.89;25.25;92024.78;4940904;28;20038;-79
2023/11/26 10:04:19;;;;;;;0.60;0.60;;;;;;;9.31;25.46;92018.31;4923595;28;20031;-78
2023/11/26 10:06:49;;;;;;;0.50;0.50;;;;;;;9.91;25.16;92019.28;4929548;28;20102;-78
2023/11/26 10:09:17;;;;;;;1.27;0.50;;;;;;;9.90;26.05;92020.31;4950932;28;20027;-79
2023/11/26 10:11:46;;;;;;;0.50;0.50;;;;;;;10.36;24.43;92017.56;4936993;28;20114;-81
2023/11/26 10:14:21;;;;;;;0.60;0.60;;;;;;;10.18;24.83;92011.38;4951548;28;20046;-82
2023/11/26 10:17:09;;;;;;;0.60;0.60;;;;;;;9.75;24.70;92018.81;4919621;28;20483;-80
2023/11/26 10:19:35;;;;;;;0.63;0.60;;;;;;;9.55;25.71;92019.97;4948192;28;20114;-80
2023/11/26 10:22:00;;;;;;;0.40;0.40;;;;;;;9.21;25.23;92010.66;4947883;28;20114;-81
2023/11/26 10:24:30;;;;;;;0.60;0.60;;;;;;;9.38;25.35;91999.63;4949998;28;20047;-81
2023/11/26 10:26:59;;;;;;;0.38;0.38;;;;;;;9.28;25.43;92010.28;4938519;28;20035;-80
2023/11/26 10:29:29;;;;;;;0.50;0.50;;;;;;;9.07;26.05;92013.22;4951168;28;20434;-81
2023/11/26 10:32:01;;;;;;;0.52;0.52;;;;;;;9.12;25.25;92010.56;4933055;28;20469;-80
2023/11/26 10:34:28;;;;;;;0.43;0.40;;;;;;;8.89;25.27;92003.63;4951731;28;21539;-80
2023/11/26 10:36:54;;;;;;;0.57;0.57;;;;;;;8.65;25.43;92009.00;4947771;28;20550;-80
2023/11/26 10:39:20;;;;;;;0.85;0.55;;;;;;;8.95;25.48;92003.25;4950249;28;20051;-80
2023/11/26 10:41:49;;;;;;;0.60;0.60;;;;;;;9.14;26.50;92005.03;4922436;28;20035;-79
2023/11/26 10:44:16;;;;;;;0.40;0.40;;;;;;;9.25;25.59;92001.16;4937922;28;20074;-80
2023/11/26 10:46:45;;;;;;;0.60;0.60;;;;;;;9.63;24.93;92005.44;4932476;28;20078;-78
2023/11/26 10:49:29;;;;;;;0.40;0.40;;;;;;;9.45;24.69;92014.91;4948076;28;20317;-78
2023/11/26 10:52:02;;;;;;;0.50;0.50;;;;;;;9.08;25.03;92000.97;4947767;28;20046;-79
2023/11/26 10:54:34;;;;;;;;;;;;;;;8.94;25.73;92006.16;4952858;28;20034;-79
2023/11/26 10:57:12;;;;;;;0.50;0.50;;;;;;;9.06;26.10;92003.84;4950258;28;19925;-76
2023/11/26 10:59:43;;;;;;;0.50;0.50;;;;;;;8.92;25.58;91993.41;4950701;28;20071;-78
2023/11/26 11:02:16;;;;;;;1.02;0.70;;;;;;;9.11;25.80;92005.59;4948034;28;20118;-79
2023/11/26 11:04:45;;;;;;;;;;;;;;;9.14;25.34;91999.78;4950984;28;20031;-79
2023/11/26 11:07:11;;;;;;;0.88;0.82;;;;;;;9.50;25.08;91993.91;4948187;28;19966;-79
2023/11/26 11:10:09;;;;;;;3.60;2.05;;;;;;;9.48;25.16;92015.13;4953821;28;20410;-79
2023/11/26 11:13:11;;;;;;;2.00;1.30;;;;;;;9.15;25.16;91991.69;4919696;28;20043;-78
2023/11/26 11:15:43;;;;;;;1.00;0.88;;;;;;;9.13;24.89;91990.44;4931282;28;20038;-81
2023/11/26 11:18:27;;;;;;;1.10;1.00;;;;;;;9.24;25.18;91997.00;4933494;29;20035;-78
2023/11/26 11:21:05;;;;;;;1.05;0.88;;;;;;;9.08;25.32;92004.34;4956983;28;20047;-78
2023/11/26 11:23:39;;;;;;;2.53;1.48;;;;;;;9.03;25.04;91993.22;4932259;28;20178;-79
2023/11/26 11:26:07;;;;;;;0.77;0.77;;;;;;;8.91;25.32;92001.50;4933144;28;20035;-80
2023/11/26 11:28:37;;;;;;;1.13;0.95;;;;;;;9.37;25.54;91992.88;4951791;28;20031;-79
2023/11/26 11:31:02;;;;;;;0.75;0.75;;;;;;;9.13;24.79;92003.47;4943827;28;20165;-81
2023/11/26 11:33:28;;;;;;;0.70;0.70;;;;;;;9.05;24.36;91986.66;4954479;28;20122;-80
2023/11/26 11:35:54;;;;;;;0.50;0.50;;;;;;;9.25;24.06;91993.31;4951326;28;20046;-80
2023/11/26 11:38:20;;;;;;;0.60;0.60;;;;;;;9.14;24.88;91997.19;4928890;28;20617;-80
2023/11/26 11:41:13;;;;;;;0.63;0.63;;;;;;;9.28;24.89;91984.16;4930346;28;20065;-80
2023/11/26 11:43:40;;;;;;;0.98;0.90;;;;;;;9.45;25.20;91996.63;4942894;28;20066;-81
2023/11/26 11:46:39;;;;;;;0.65;0.65;;;;;;;9.35;24.09;91993.16;4923024;28;20051;-78
2023/11/26 11:49:05;;;;;;;0.60;0.60;;;;;;;9.47;23.98;91997.13;4912988;28;20118;-82